sensor_id;sensor_type;location;lat;lon;timestamp;P1;durP1;ratioP1;P2;durP2;ratioP2
8260;SDS011;64115;50.170;8.242;2023-08-21T00:01:32;7.80;;;7.10;;
8260;SDS011;64115;50.170;8.242;2023-08-21T00:04:00;7.30;;;6.80;;
8260;SDS011;64115;50.170;8.242;2023-08-21T00:06:28;8.07;;;7.40;;
8260;SDS011;64115;50.170;8.242;2023-08-21T00:08:54;8.27;;;7.63;;
8260;SDS011;64115;50.170;8.242;2023-08-21T00:11:21;9.40;;;8.10;;
8260;SDS011;64115;50.170;8.242;2023-08-21T00:13:50;8.60;;;7.70;;
8260;SDS011;64115;50.170;8.242;2023-08-21T00:16:22;8.83;;;7.97;;
8260;SDS011;64115;50.170;8.242;2023-08-21T00:18:49;8.33;;;7.63;;
8260;SDS011;64115;50.170;8.242;2023-08-21T00:21:16;8.10;;;7.47;;
8260;SDS011;64115;50.170;8.242;2023-08-21T00:23:43;8.37;;;7.57;;
8260;SDS011;64115;50.170;8.242;2023-08-21T00:26:10;8.07;;;7.37;;
8260;SDS011;64115;50.170;8.242;2023-08-21T00:28:36;8.67;;;7.97;;
8260;SDS011;64115;50.170;8.242;2023-08-21T00:31:03;8.20;;;7.50;;
8260;SDS011;64115;50.170;8.242;2023-08-21T00:33:35;8.33;;;7.70;;
8260;SDS011;64115;50.170;8.242;2023-08-21T00:36:03;8.57;;;7.83;;
8260;SDS011;64115;50.170;8.242;2023-08-21T00:38:30;8.23;;;7.50;;
8260;SDS011;64115;50.170;8.242;2023-08-21T00:40:57;8.53;;;7.83;;
8260;SDS011;64115;50.170;8.242;2023-08-21T00:43:23;9.40;;;8.10;;
8260;SDS011;64115;50.170;8.242;2023-08-21T00:45:50;8.70;;;7.83;;
8260;SDS011;64115;50.170;8.242;2023-08-21T00:48:17;8.10;;;7.37;;
8260;SDS011;64115;50.170;8.242;2023-08-21T00:50:47;7.70;;;7.10;;
8260;SDS011;64115;50.170;8.242;2023-08-21T00:53:14;9.17;;;7.93;;
8260;SDS011;64115;50.170;8.242;2023-08-21T00:55:41;9.10;;;8.13;;
8260;SDS011;64115;50.170;8.242;2023-08-21T00:58:09;9.77;;;8.87;;
8260;SDS011;64115;50.170;8.242;2023-08-21T01:00:37;9.60;;;8.67;;
8260;SDS011;64115;50.170;8.242;2023-08-21T01:03:04;10.00;;;8.57;;
8260;SDS011;64115;50.170;8.242;2023-08-21T01:05:31;8.93;;;8.00;;
8260;SDS011;64115;50.170;8.242;2023-08-21T01:07:59;9.37;;;8.47;;
8260;SDS011;64115;50.170;8.242;2023-08-21T01:10:32;10.23;;;8.60;;
8260;SDS011;64115;50.170;8.242;2023-08-21T01:13:06;10.17;;;8.27;;
8260;SDS011;64115;50.170;8.242;2023-08-21T01:15:37;9.20;;;8.50;;
8260;SDS011;64115;50.170;8.242;2023-08-21T01:18:05;8.77;;;7.80;;
8260;SDS011;64115;50.170;8.242;2023-08-21T01:20:34;8.80;;;8.07;;
8260;SDS011;64115;50.170;8.242;2023-08-21T01:23:04;9.07;;;8.27;;
8260;SDS011;64115;50.170;8.242;2023-08-21T01:25:33;8.83;;;8.10;;
8260;SDS011;64115;50.170;8.242;2023-08-21T01:28:00;8.63;;;8.03;;
8260;SDS011;64115;50.170;8.242;2023-08-21T01:30:27;10.30;;;8.00;;
8260;SDS011;64115;50.170;8.242;2023-08-21T01:32:59;9.10;;;8.40;;
8260;SDS011;64115;50.170;8.242;2023-08-21T01:35:31;9.50;;;8.70;;
8260;SDS011;64115;50.170;8.242;2023-08-21T01:38:00;10.80;;;8.67;;
8260;SDS011;64115;50.170;8.242;2023-08-21T01:40:28;9.33;;;8.47;;
8260;SDS011;64115;50.170;8.242;2023-08-21T01:42:56;9.57;;;8.70;;
8260;SDS011;64115;50.170;8.242;2023-08-21T01:45:22;9.60;;;8.70;;
8260;SDS011;64115;50.170;8.242;2023-08-21T01:47:50;9.60;;;8.70;;
8260;SDS011;64115;50.170;8.242;2023-08-21T01:50:16;9.57;;;8.57;;
8260;SDS011;64115;50.170;8.242;2023-08-21T01:52:43;9.97;;;9.10;;
8260;SDS011;64115;50.170;8.242;2023-08-21T01:55:10;9.70;;;8.70;;
8260;SDS011;64115;50.170;8.242;2023-08-21T01:57:37;9.00;;;8.13;;
8260;SDS011;64115;50.170;8.242;2023-08-21T02:00:06;8.50;;;7.77;;
8260;SDS011;64115;50.170;8.242;2023-08-21T02:02:34;9.47;;;8.57;;
8260;SDS011;64115;50.170;8.242;2023-08-21T02:05:01;9.10;;;8.37;;
8260;SDS011;64115;50.170;8.242;2023-08-21T02:07:29;8.73;;;7.77;;
8260;SDS011;64115;50.170;8.242;2023-08-21T02:09:57;9.07;;;8.10;;
8260;SDS011;64115;50.170;8.242;2023-08-21T02:12:24;8.70;;;7.90;;
8260;SDS011;64115;50.170;8.242;2023-08-21T02:14:50;8.60;;;7.73;;
8260;SDS011;64115;50.170;8.242;2023-08-21T02:17:19;9.17;;;8.27;;
8260;SDS011;64115;50.170;8.242;2023-08-21T02:19:46;9.13;;;8.27;;
8260;SDS011;64115;50.170;8.242;2023-08-21T02:22:12;9.17;;;8.37;;
8260;SDS011;64115;50.170;8.242;2023-08-21T02:24:39;9.80;;;8.90;;
8260;SDS011;64115;50.170;8.242;2023-08-21T02:27:06;9.77;;;8.97;;
8260;SDS011;64115;50.170;8.242;2023-08-21T02:29:32;11.67;;;9.00;;
8260;SDS011;64115;50.170;8.242;2023-08-21T02:31:59;9.87;;;8.87;;
8260;SDS011;64115;50.170;8.242;2023-08-21T02:34:27;10.20;;;9.37;;
8260;SDS011;64115;50.170;8.242;2023-08-21T02:36:54;9.90;;;9.00;;
8260;SDS011;64115;50.170;8.242;2023-08-21T02:39:21;10.70;;;9.37;;
8260;SDS011;64115;50.170;8.242;2023-08-21T02:41:48;9.23;;;8.40;;
8260;SDS011;64115;50.170;8.242;2023-08-21T02:44:14;9.47;;;8.57;;
8260;SDS011;64115;50.170;8.242;2023-08-21T02:46:41;10.50;;;9.40;;
8260;SDS011;64115;50.170;8.242;2023-08-21T02:49:08;11.03;;;10.13;;
8260;SDS011;64115;50.170;8.242;2023-08-21T02:51:36;11.00;;;9.13;;
8260;SDS011;64115;50.170;8.242;2023-08-21T02:54:03;10.47;;;9.43;;
8260;SDS011;64115;50.170;8.242;2023-08-21T02:56:30;10.47;;;9.47;;
8260;SDS011;64115;50.170;8.242;2023-08-21T02:58:56;10.27;;;9.30;;
8260;SDS011;64115;50.170;8.242;2023-08-21T03:01:23;10.10;;;9.07;;
8260;SDS011;64115;50.170;8.242;2023-08-21T03:03:50;11.20;;;10.03;;
8260;SDS011;64115;50.170;8.242;2023-08-21T03:06:16;10.73;;;9.70;;
8260;SDS011;64115;50.170;8.242;2023-08-21T03:08:45;10.87;;;9.77;;
8260;SDS011;64115;50.170;8.242;2023-08-21T03:11:11;10.33;;;9.43;;
8260;SDS011;64115;50.170;8.242;2023-08-21T03:13:39;9.67;;;8.97;;
8260;SDS011;64115;50.170;8.242;2023-08-21T03:16:06;10.77;;;9.77;;
8260;SDS011;64115;50.170;8.242;2023-08-21T03:18:34;11.10;;;9.67;;
8260;SDS011;64115;50.170;8.242;2023-08-21T03:21:19;11.03;;;9.80;;
8260;SDS011;64115;50.170;8.242;2023-08-21T03:23:49;10.00;;;9.10;;
8260;SDS011;64115;50.170;8.242;2023-08-21T03:26:18;9.50;;;8.60;;
8260;SDS011;64115;50.170;8.242;2023-08-21T03:28:45;9.63;;;8.77;;
8260;SDS011;64115;50.170;8.242;2023-08-21T03:31:12;9.57;;;8.60;;
8260;SDS011;64115;50.170;8.242;2023-08-21T03:33:38;10.33;;;9.30;;
8260;SDS011;64115;50.170;8.242;2023-08-21T03:36:05;11.13;;;9.50;;
8260;SDS011;64115;50.170;8.242;2023-08-21T03:38:35;10.00;;;9.13;;
8260;SDS011;64115;50.170;8.242;2023-08-21T03:41:03;9.97;;;9.17;;
8260;SDS011;64115;50.170;8.242;2023-08-21T03:43:30;10.77;;;9.63;;
8260;SDS011;64115;50.170;8.242;2023-08-21T03:45:57;9.40;;;8.70;;
8260;SDS011;64115;50.170;8.242;2023-08-21T03:48:24;9.87;;;8.97;;
8260;SDS011;64115;50.170;8.242;2023-08-21T03:50:51;12.87;;;9.40;;
8260;SDS011;64115;50.170;8.242;2023-08-21T03:53:18;10.53;;;9.50;;
8260;SDS011;64115;50.170;8.242;2023-08-21T03:55:45;10.80;;;9.73;;
8260;SDS011;64115;50.170;8.242;2023-08-21T03:58:13;10.53;;;9.63;;
8260;SDS011;64115;50.170;8.242;2023-08-21T04:00:40;10.50;;;9.50;;
8260;SDS011;64115;50.170;8.242;2023-08-21T04:03:07;10.33;;;9.40;;
8260;SDS011;64115;50.170;8.242;2023-08-21T04:05:35;11.20;;;10.10;;
8260;SDS011;64115;50.170;8.242;2023-08-21T04:08:03;10.83;;;9.73;;
8260;SDS011;64115;50.170;8.242;2023-08-21T04:10:30;10.53;;;9.53;;
8260;SDS011;64115;50.170;8.242;2023-08-21T04:12:57;10.97;;;9.87;;
8260;SDS011;64115;50.170;8.242;2023-08-21T04:15:25;11.77;;;9.43;;
8260;SDS011;64115;50.170;8.242;2023-08-21T04:17:54;11.47;;;9.73;;
8260;SDS011;64115;50.170;8.242;2023-08-21T04:20:21;11.77;;;10.63;;
8260;SDS011;64115;50.170;8.242;2023-08-21T04:22:49;11.20;;;10.10;;
8260;SDS011;64115;50.170;8.242;2023-08-21T04:25:16;10.67;;;9.63;;
8260;SDS011;64115;50.170;8.242;2023-08-21T04:27:43;11.03;;;9.80;;
8260;SDS011;64115;50.170;8.242;2023-08-21T04:30:11;10.77;;;9.70;;
8260;SDS011;64115;50.170;8.242;2023-08-21T04:32:39;11.40;;;10.30;;
8260;SDS011;64115;50.170;8.242;2023-08-21T04:35:07;11.33;;;9.77;;
8260;SDS011;64115;50.170;8.242;2023-08-21T04:37:37;12.83;;;11.23;;
8260;SDS011;64115;50.170;8.242;2023-08-21T04:40:09;12.27;;;10.93;;
8260;SDS011;64115;50.170;8.242;2023-08-21T04:42:37;11.23;;;10.10;;
8260;SDS011;64115;50.170;8.242;2023-08-21T04:45:04;11.63;;;10.43;;
8260;SDS011;64115;50.170;8.242;2023-08-21T04:47:32;11.07;;;10.00;;
8260;SDS011;64115;50.170;8.242;2023-08-21T04:50:00;10.87;;;9.87;;
8260;SDS011;64115;50.170;8.242;2023-08-21T04:52:29;10.67;;;9.77;;
8260;SDS011;64115;50.170;8.242;2023-08-21T04:54:56;11.53;;;9.87;;
8260;SDS011;64115;50.170;8.242;2023-08-21T04:57:24;11.83;;;10.63;;
8260;SDS011;64115;50.170;8.242;2023-08-21T04:59:51;10.93;;;9.93;;
8260;SDS011;64115;50.170;8.242;2023-08-21T05:02:17;12.00;;;9.83;;
8260;SDS011;64115;50.170;8.242;2023-08-21T05:04:44;11.30;;;10.00;;
8260;SDS011;64115;50.170;8.242;2023-08-21T05:07:13;10.90;;;9.80;;
8260;SDS011;64115;50.170;8.242;2023-08-21T05:09:40;10.33;;;9.40;;
8260;SDS011;64115;50.170;8.242;2023-08-21T05:12:07;10.07;;;9.23;;
8260;SDS011;64115;50.170;8.242;2023-08-21T05:14:34;11.17;;;10.00;;
8260;SDS011;64115;50.170;8.242;2023-08-21T05:17:07;10.67;;;9.57;;
8260;SDS011;64115;50.170;8.242;2023-08-21T05:19:36;11.27;;;10.17;;
8260;SDS011;64115;50.170;8.242;2023-08-21T05:22:04;11.07;;;10.07;;
8260;SDS011;64115;50.170;8.242;2023-08-21T05:24:33;10.93;;;9.93;;
8260;SDS011;64115;50.170;8.242;2023-08-21T05:27:00;10.60;;;9.50;;
8260;SDS011;64115;50.170;8.242;2023-08-21T05:29:26;10.93;;;9.53;;
8260;SDS011;64115;50.170;8.242;2023-08-21T05:31:53;10.10;;;9.40;;
8260;SDS011;64115;50.170;8.242;2023-08-21T05:34:20;10.00;;;9.10;;
8260;SDS011;64115;50.170;8.242;2023-08-21T05:36:47;12.03;;;9.73;;
8260;SDS011;64115;50.170;8.242;2023-08-21T05:39:14;10.30;;;9.50;;
8260;SDS011;64115;50.170;8.242;2023-08-21T05:41:42;10.10;;;9.30;;
8260;SDS011;64115;50.170;8.242;2023-08-21T05:44:09;9.83;;;8.83;;
8260;SDS011;64115;50.170;8.242;2023-08-21T05:46:35;9.33;;;8.50;;
8260;SDS011;64115;50.170;8.242;2023-08-21T05:49:03;10.10;;;9.10;;
8260;SDS011;64115;50.170;8.242;2023-08-21T05:51:30;10.13;;;9.23;;
8260;SDS011;64115;50.170;8.242;2023-08-21T05:53:57;8.97;;;8.27;;
8260;SDS011;64115;50.170;8.242;2023-08-21T05:56:24;10.17;;;8.33;;
8260;SDS011;64115;50.170;8.242;2023-08-21T05:58:52;9.53;;;8.60;;
8260;SDS011;64115;50.170;8.242;2023-08-21T06:01:19;8.53;;;7.93;;
8260;SDS011;64115;50.170;8.242;2023-08-21T06:03:45;8.60;;;7.77;;
8260;SDS011;64115;50.170;8.242;2023-08-21T06:06:12;8.10;;;7.50;;
8260;SDS011;64115;50.170;8.242;2023-08-21T06:08:39;8.50;;;7.53;;
8260;SDS011;64115;50.170;8.242;2023-08-21T06:11:06;8.07;;;7.27;;
8260;SDS011;64115;50.170;8.242;2023-08-21T06:13:35;7.90;;;7.30;;
8260;SDS011;64115;50.170;8.242;2023-08-21T06:16:03;7.70;;;7.20;;
8260;SDS011;64115;50.170;8.242;2023-08-21T06:18:32;8.10;;;7.37;;
8260;SDS011;64115;50.170;8.242;2023-08-21T06:20:59;7.63;;;6.97;;
8260;SDS011;64115;50.170;8.242;2023-08-21T06:23:25;7.90;;;7.10;;
8260;SDS011;64115;50.170;8.242;2023-08-21T06:25:52;7.73;;;7.03;;
8260;SDS011;64115;50.170;8.242;2023-08-21T06:28:19;7.80;;;7.30;;
8260;SDS011;64115;50.170;8.242;2023-08-21T06:30:46;7.80;;;7.10;;
8260;SDS011;64115;50.170;8.242;2023-08-21T06:33:14;8.00;;;7.07;;
8260;SDS011;64115;50.170;8.242;2023-08-21T06:35:40;7.73;;;7.10;;
8260;SDS011;64115;50.170;8.242;2023-08-21T06:38:07;7.53;;;7.03;;
8260;SDS011;64115;50.170;8.242;2023-08-21T06:40:35;7.63;;;6.93;;
8260;SDS011;64115;50.170;8.242;2023-08-21T06:43:04;7.90;;;7.30;;
8260;SDS011;64115;50.170;8.242;2023-08-21T06:45:31;8.23;;;7.17;;
8260;SDS011;64115;50.170;8.242;2023-08-21T06:47:59;6.80;;;6.30;;
8260;SDS011;64115;50.170;8.242;2023-08-21T06:50:28;6.50;;;6.00;;
8260;SDS011;64115;50.170;8.242;2023-08-21T06:52:55;5.97;;;5.37;;
8260;SDS011;64115;50.170;8.242;2023-08-21T06:55:22;5.77;;;5.37;;
8260;SDS011;64115;50.170;8.242;2023-08-21T06:57:49;5.47;;;5.07;;
8260;SDS011;64115;50.170;8.242;2023-08-21T07:00:16;6.87;;;5.03;;
8260;SDS011;64115;50.170;8.242;2023-08-21T07:02:43;5.40;;;4.90;;
8260;SDS011;64115;50.170;8.242;2023-08-21T07:05:09;5.53;;;5.13;;
8260;SDS011;64115;50.170;8.242;2023-08-21T07:07:38;5.60;;;5.10;;
8260;SDS011;64115;50.170;8.242;2023-08-21T07:10:05;5.10;;;4.70;;
8260;SDS011;64115;50.170;8.242;2023-08-21T07:12:33;5.57;;;5.17;;
8260;SDS011;64115;50.170;8.242;2023-08-21T07:15:03;5.70;;;5.20;;
8260;SDS011;64115;50.170;8.242;2023-08-21T07:17:30;5.07;;;4.60;;
8260;SDS011;64115;50.170;8.242;2023-08-21T07:19:57;5.00;;;4.60;;
8260;SDS011;64115;50.170;8.242;2023-08-21T07:22:23;4.80;;;4.50;;
8260;SDS011;64115;50.170;8.242;2023-08-21T07:24:52;5.20;;;4.90;;
8260;SDS011;64115;50.170;8.242;2023-08-21T07:27:19;5.00;;;4.50;;
8260;SDS011;64115;50.170;8.242;2023-08-21T07:29:45;4.97;;;4.40;;
8260;SDS011;64115;50.170;8.242;2023-08-21T07:32:12;4.80;;;4.50;;
8260;SDS011;64115;50.170;8.242;2023-08-21T07:34:39;4.90;;;4.60;;
8260;SDS011;64115;50.170;8.242;2023-08-21T07:37:07;5.00;;;4.50;;
8260;SDS011;64115;50.170;8.242;2023-08-21T07:39:34;5.27;;;4.77;;
8260;SDS011;64115;50.170;8.242;2023-08-21T07:42:02;5.47;;;4.90;;
8260;SDS011;64115;50.170;8.242;2023-08-21T07:44:29;5.17;;;4.77;;
8260;SDS011;64115;50.170;8.242;2023-08-21T07:46:56;5.00;;;4.60;;
8260;SDS011;64115;50.170;8.242;2023-08-21T07:49:23;5.60;;;5.10;;
8260;SDS011;64115;50.170;8.242;2023-08-21T07:51:50;5.33;;;4.87;;
8260;SDS011;64115;50.170;8.242;2023-08-21T07:54:16;5.40;;;4.90;;
8260;SDS011;64115;50.170;8.242;2023-08-21T07:56:43;5.00;;;4.70;;
8260;SDS011;64115;50.170;8.242;2023-08-21T07:59:11;4.70;;;4.40;;
8260;SDS011;64115;50.170;8.242;2023-08-21T08:01:38;4.90;;;4.50;;
8260;SDS011;64115;50.170;8.242;2023-08-21T08:04:05;5.20;;;4.80;;
8260;SDS011;64115;50.170;8.242;2023-08-21T08:06:32;4.23;;;4.00;;
8260;SDS011;64115;50.170;8.242;2023-08-21T08:08:59;4.20;;;3.90;;
8260;SDS011;64115;50.170;8.242;2023-08-21T08:11:26;4.83;;;4.20;;
8260;SDS011;64115;50.170;8.242;2023-08-21T08:13:52;4.23;;;3.93;;
8260;SDS011;64115;50.170;8.242;2023-08-21T08:16:21;4.33;;;3.83;;
8260;SDS011;64115;50.170;8.242;2023-08-21T08:18:48;3.90;;;3.60;;
8260;SDS011;64115;50.170;8.242;2023-08-21T08:21:14;3.97;;;3.60;;
8260;SDS011;64115;50.170;8.242;2023-08-21T08:23:42;3.57;;;3.30;;
8260;SDS011;64115;50.170;8.242;2023-08-21T08:26:09;4.27;;;3.33;;
8260;SDS011;64115;50.170;8.242;2023-08-21T08:28:36;3.40;;;3.10;;
8260;SDS011;64115;50.170;8.242;2023-08-21T08:31:13;3.30;;;3.10;;
8260;SDS011;64115;50.170;8.242;2023-08-21T08:33:42;7.13;;;3.70;;
8260;SDS011;64115;50.170;8.242;2023-08-21T08:36:09;4.30;;;3.90;;
8260;SDS011;64115;50.170;8.242;2023-08-21T08:38:35;4.13;;;3.83;;
8260;SDS011;64115;50.170;8.242;2023-08-21T08:41:04;4.30;;;3.90;;
8260;SDS011;64115;50.170;8.242;2023-08-21T08:43:40;3.17;;;2.97;;
8260;SDS011;64115;50.170;8.242;2023-08-21T08:46:07;3.30;;;3.07;;
8260;SDS011;64115;50.170;8.242;2023-08-21T08:48:34;2.70;;;2.50;;
8260;SDS011;64115;50.170;8.242;2023-08-21T08:51:03;3.00;;;2.50;;
8260;SDS011;64115;50.170;8.242;2023-08-21T08:53:30;2.77;;;2.67;;
8260;SDS011;64115;50.170;8.242;2023-08-21T08:55:57;3.00;;;2.80;;
8260;SDS011;64115;50.170;8.242;2023-08-21T08:58:24;2.90;;;2.70;;
8260;SDS011;64115;50.170;8.242;2023-08-21T09:00:51;3.10;;;2.80;;
8260;SDS011;64115;50.170;8.242;2023-08-21T09:03:18;2.67;;;2.50;;
8260;SDS011;64115;50.170;8.242;2023-08-21T09:05:45;3.10;;;2.80;;
8260;SDS011;64115;50.170;8.242;2023-08-21T09:08:14;3.20;;;2.97;;
8260;SDS011;64115;50.170;8.242;2023-08-21T09:10:41;4.43;;;3.03;;
8260;SDS011;64115;50.170;8.242;2023-08-21T09:13:13;3.30;;;2.80;;
8260;SDS011;64115;50.170;8.242;2023-08-21T09:15:42;2.57;;;2.30;;
8260;SDS011;64115;50.170;8.242;2023-08-21T09:18:10;2.00;;;1.90;;
8260;SDS011;64115;50.170;8.242;2023-08-21T09:20:37;1.93;;;1.83;;
8260;SDS011;64115;50.170;8.242;2023-08-21T09:23:04;2.37;;;2.27;;
8260;SDS011;64115;50.170;8.242;2023-08-21T09:25:36;2.17;;;1.90;;
8260;SDS011;64115;50.170;8.242;2023-08-21T09:28:05;1.50;;;1.40;;
8260;SDS011;64115;50.170;8.242;2023-08-21T09:30:45;1.60;;;1.50;;
8260;SDS011;64115;50.170;8.242;2023-08-21T09:33:16;1.50;;;1.40;;
8260;SDS011;64115;50.170;8.242;2023-08-21T09:35:43;2.43;;;1.67;;
8260;SDS011;64115;50.170;8.242;2023-08-21T09:38:10;2.27;;;1.70;;
8260;SDS011;64115;50.170;8.242;2023-08-21T09:40:54;1.77;;;1.67;;
8260;SDS011;64115;50.170;8.242;2023-08-21T09:43:22;1.90;;;1.80;;
8260;SDS011;64115;50.170;8.242;2023-08-21T09:45:50;2.13;;;2.00;;
8260;SDS011;64115;50.170;8.242;2023-08-21T09:48:20;2.03;;;1.67;;
8260;SDS011;64115;50.170;8.242;2023-08-21T09:50:52;1.87;;;1.77;;
8260;SDS011;64115;50.170;8.242;2023-08-21T09:53:22;1.67;;;1.57;;
8260;SDS011;64115;50.170;8.242;2023-08-21T09:55:52;1.63;;;1.53;;
8260;SDS011;64115;50.170;8.242;2023-08-21T09:58:20;1.93;;;1.67;;
8260;SDS011;64115;50.170;8.242;2023-08-21T10:00:48;2.43;;;1.73;;
8260;SDS011;64115;50.170;8.242;2023-08-21T10:03:17;1.50;;;1.40;;
8260;SDS011;64115;50.170;8.242;2023-08-21T10:05:47;1.53;;;1.43;;
8260;SDS011;64115;50.170;8.242;2023-08-21T10:08:15;1.80;;;1.70;;
8260;SDS011;64115;50.170;8.242;2023-08-21T10:10:44;1.30;;;1.30;;
8260;SDS011;64115;50.170;8.242;2023-08-21T10:13:12;1.63;;;1.50;;
8260;SDS011;64115;50.170;8.242;2023-08-21T10:15:39;2.60;;;1.50;;
8260;SDS011;64115;50.170;8.242;2023-08-21T10:18:21;1.43;;;1.33;;
8260;SDS011;64115;50.170;8.242;2023-08-21T10:20:49;1.80;;;1.70;;
8260;SDS011;64115;50.170;8.242;2023-08-21T10:23:27;1.90;;;1.80;;
8260;SDS011;64115;50.170;8.242;2023-08-21T10:25:55;1.97;;;1.87;;
8260;SDS011;64115;50.170;8.242;2023-08-21T10:28:23;1.70;;;1.60;;
8260;SDS011;64115;50.170;8.242;2023-08-21T10:30:51;1.80;;;1.70;;
8260;SDS011;64115;50.170;8.242;2023-08-21T10:33:21;1.70;;;1.60;;
8260;SDS011;64115;50.170;8.242;2023-08-21T10:36:11;1.50;;;1.40;;
8260;SDS011;64115;50.170;8.242;2023-08-21T10:38:52;1.60;;;1.50;;
8260;SDS011;64115;50.170;8.242;2023-08-21T10:41:26;2.30;;;1.60;;
8260;SDS011;64115;50.170;8.242;2023-08-21T10:43:54;1.50;;;1.40;;
8260;SDS011;64115;50.170;8.242;2023-08-21T10:46:21;1.73;;;1.50;;
8260;SDS011;64115;50.170;8.242;2023-08-21T10:48:48;1.87;;;1.70;;
8260;SDS011;64115;50.170;8.242;2023-08-21T10:51:15;2.17;;;1.73;;
8260;SDS011;64115;50.170;8.242;2023-08-21T10:53:43;2.00;;;1.90;;
8260;SDS011;64115;50.170;8.242;2023-08-21T10:56:10;2.17;;;2.00;;
8260;SDS011;64115;50.170;8.242;2023-08-21T10:58:37;1.70;;;1.60;;
8260;SDS011;64115;50.170;8.242;2023-08-21T11:01:06;2.50;;;2.30;;
8260;SDS011;64115;50.170;8.242;2023-08-21T11:03:33;1.80;;;1.70;;
8260;SDS011;64115;50.170;8.242;2023-08-21T11:06:00;2.57;;;1.93;;
8260;SDS011;64115;50.170;8.242;2023-08-21T11:08:31;1.90;;;1.80;;
8260;SDS011;64115;50.170;8.242;2023-08-21T11:10:59;2.87;;;1.90;;
8260;SDS011;64115;50.170;8.242;2023-08-21T11:13:26;3.00;;;1.80;;
8260;SDS011;64115;50.170;8.242;2023-08-21T11:15:59;1.80;;;1.70;;
8260;SDS011;64115;50.170;8.242;2023-08-21T11:18:32;2.30;;;1.93;;
8260;SDS011;64115;50.170;8.242;2023-08-21T11:21:03;2.27;;;2.17;;
8260;SDS011;64115;50.170;8.242;2023-08-21T11:23:32;1.90;;;1.80;;
8260;SDS011;64115;50.170;8.242;2023-08-21T11:26:00;2.10;;;2.00;;
8260;SDS011;64115;50.170;8.242;2023-08-21T11:28:28;4.03;;;2.33;;
8260;SDS011;64115;50.170;8.242;2023-08-21T11:30:55;2.03;;;1.93;;
8260;SDS011;64115;50.170;8.242;2023-08-21T11:33:22;2.40;;;2.20;;
8260;SDS011;64115;50.170;8.242;2023-08-21T11:35:51;2.50;;;2.30;;
8260;SDS011;64115;50.170;8.242;2023-08-21T11:38:19;2.30;;;2.10;;
8260;SDS011;64115;50.170;8.242;2023-08-21T11:40:51;2.40;;;2.20;;
8260;SDS011;64115;50.170;8.242;2023-08-21T11:43:18;2.10;;;1.93;;
8260;SDS011;64115;50.170;8.242;2023-08-21T11:45:45;2.20;;;2.10;;
8260;SDS011;64115;50.170;8.242;2023-08-21T11:48:12;2.30;;;1.83;;
8260;SDS011;64115;50.170;8.242;2023-08-21T11:50:39;2.17;;;2.07;;
8260;SDS011;64115;50.170;8.242;2023-08-21T11:53:07;2.87;;;2.03;;
8260;SDS011;64115;50.170;8.242;2023-08-21T11:55:36;2.77;;;2.40;;
8260;SDS011;64115;50.170;8.242;2023-08-21T11:58:03;2.37;;;2.20;;
8260;SDS011;64115;50.170;8.242;2023-08-21T12:00:30;1.80;;;1.70;;
8260;SDS011;64115;50.170;8.242;2023-08-21T12:03:01;2.07;;;1.97;;
8260;SDS011;64115;50.170;8.242;2023-08-21T12:05:31;2.03;;;1.93;;
8260;SDS011;64115;50.170;8.242;2023-08-21T12:07:58;1.90;;;1.80;;
8260;SDS011;64115;50.170;8.242;2023-08-21T12:10:27;1.80;;;1.70;;
8260;SDS011;64115;50.170;8.242;2023-08-21T12:12:55;2.60;;;1.70;;
8260;SDS011;64115;50.170;8.242;2023-08-21T12:15:22;1.58;;;1.48;;
8260;SDS011;64115;50.170;8.242;2023-08-21T12:17:49;1.60;;;1.60;;
8260;SDS011;64115;50.170;8.242;2023-08-21T12:20:16;2.10;;;1.90;;
8260;SDS011;64115;50.170;8.242;2023-08-21T12:22:43;2.10;;;1.98;;
8260;SDS011;64115;50.170;8.242;2023-08-21T12:25:10;1.92;;;1.83;;
8260;SDS011;64115;50.170;8.242;2023-08-21T12:27:39;2.40;;;2.20;;
8260;SDS011;64115;50.170;8.242;2023-08-21T12:30:06;4.57;;;1.90;;
8260;SDS011;64115;50.170;8.242;2023-08-21T12:32:34;3.42;;;1.95;;
8260;SDS011;64115;50.170;8.242;2023-08-21T12:35:04;3.73;;;1.90;;
8260;SDS011;64115;50.170;8.242;2023-08-21T12:37:31;3.20;;;2.10;;
8260;SDS011;64115;50.170;8.242;2023-08-21T12:39:58;2.10;;;2.00;;
8260;SDS011;64115;50.170;8.242;2023-08-21T12:42:25;2.37;;;2.10;;
8260;SDS011;64115;50.170;8.242;2023-08-21T12:44:53;1.97;;;1.87;;
8260;SDS011;64115;50.170;8.242;2023-08-21T12:47:20;3.00;;;2.37;;
8260;SDS011;64115;50.170;8.242;2023-08-21T12:49:46;2.50;;;2.23;;
8260;SDS011;64115;50.170;8.242;2023-08-21T12:52:13;2.50;;;2.33;;
8260;SDS011;64115;50.170;8.242;2023-08-21T12:54:40;2.13;;;2.03;;
8260;SDS011;64115;50.170;8.242;2023-08-21T12:57:09;2.00;;;1.90;;
8260;SDS011;64115;50.170;8.242;2023-08-21T12:59:37;2.90;;;1.73;;
8260;SDS011;64115;50.170;8.242;2023-08-21T13:02:06;2.63;;;1.88;;
8260;SDS011;64115;50.170;8.242;2023-08-21T13:04:36;2.20;;;2.00;;
8260;SDS011;64115;50.170;8.242;2023-08-21T13:07:03;2.10;;;2.00;;
8260;SDS011;64115;50.170;8.242;2023-08-21T13:09:30;2.65;;;2.10;;
8260;SDS011;64115;50.170;8.242;2023-08-21T13:11:58;2.38;;;2.17;;
8260;SDS011;64115;50.170;8.242;2023-08-21T13:14:25;2.10;;;2.00;;
8260;SDS011;64115;50.170;8.242;2023-08-21T13:16:52;1.85;;;1.75;;
8260;SDS011;64115;50.170;8.242;2023-08-21T13:19:21;6.43;;;2.00;;
8260;SDS011;64115;50.170;8.242;2023-08-21T13:21:48;1.85;;;1.70;;
8260;SDS011;64115;50.170;8.242;2023-08-21T13:24:17;2.03;;;1.85;;
8260;SDS011;64115;50.170;8.242;2023-08-21T13:26:46;1.88;;;1.77;;
8260;SDS011;64115;50.170;8.242;2023-08-21T13:29:13;1.80;;;1.70;;
8260;SDS011;64115;50.170;8.242;2023-08-21T13:31:39;1.73;;;1.63;;
8260;SDS011;64115;50.170;8.242;2023-08-21T13:34:06;1.80;;;1.70;;
8260;SDS011;64115;50.170;8.242;2023-08-21T13:36:34;3.65;;;1.98;;
8260;SDS011;64115;50.170;8.242;2023-08-21T13:39:01;2.38;;;1.80;;
8260;SDS011;64115;50.170;8.242;2023-08-21T13:41:30;1.70;;;1.60;;
8260;SDS011;64115;50.170;8.242;2023-08-21T13:43:57;1.55;;;1.48;;
8260;SDS011;64115;50.170;8.242;2023-08-21T13:46:24;1.83;;;1.67;;
8260;SDS011;64115;50.170;8.242;2023-08-21T13:48:51;1.73;;;1.60;;
8260;SDS011;64115;50.170;8.242;2023-08-21T13:51:18;1.83;;;1.73;;
8260;SDS011;64115;50.170;8.242;2023-08-21T13:53:46;2.20;;;2.00;;
8260;SDS011;64115;50.170;8.242;2023-08-21T13:56:13;2.03;;;1.92;;
8260;SDS011;64115;50.170;8.242;2023-08-21T13:58:40;2.05;;;1.80;;
8260;SDS011;64115;50.170;8.242;2023-08-21T14:01:07;2.95;;;1.90;;
8260;SDS011;64115;50.170;8.242;2023-08-21T14:03:34;2.00;;;1.90;;
8260;SDS011;64115;50.170;8.242;2023-08-21T14:06:01;2.35;;;1.77;;
8260;SDS011;64115;50.170;8.242;2023-08-21T14:08:28;2.10;;;2.00;;
8260;SDS011;64115;50.170;8.242;2023-08-21T14:10:57;2.90;;;2.10;;
8260;SDS011;64115;50.170;8.242;2023-08-21T14:13:24;2.07;;;1.97;;
8260;SDS011;64115;50.170;8.242;2023-08-21T14:15:51;7.43;;;2.38;;
8260;SDS011;64115;50.170;8.242;2023-08-21T14:18:17;2.00;;;1.80;;
8260;SDS011;64115;50.170;8.242;2023-08-21T14:20:44;1.85;;;1.65;;
8260;SDS011;64115;50.170;8.242;2023-08-21T14:23:11;1.60;;;1.60;;
8260;SDS011;64115;50.170;8.242;2023-08-21T14:25:38;3.28;;;1.92;;
8260;SDS011;64115;50.170;8.242;2023-08-21T14:28:06;2.00;;;1.70;;
8260;SDS011;64115;50.170;8.242;2023-08-21T14:30:33;2.13;;;1.83;;
8260;SDS011;64115;50.170;8.242;2023-08-21T14:33:00;2.00;;;1.90;;
8260;SDS011;64115;50.170;8.242;2023-08-21T14:35:27;2.00;;;1.90;;
8260;SDS011;64115;50.170;8.242;2023-08-21T14:37:56;2.03;;;1.93;;
8260;SDS011;64115;50.170;8.242;2023-08-21T14:40:23;2.60;;;2.00;;
8260;SDS011;64115;50.170;8.242;2023-08-21T14:42:50;4.22;;;2.40;;
8260;SDS011;64115;50.170;8.242;2023-08-21T14:45:18;2.30;;;2.10;;
8260;SDS011;64115;50.170;8.242;2023-08-21T14:47:45;2.20;;;2.07;;
8260;SDS011;64115;50.170;8.242;2023-08-21T14:50:12;1.90;;;1.80;;
8260;SDS011;64115;50.170;8.242;2023-08-21T14:52:39;3.10;;;1.90;;
8260;SDS011;64115;50.170;8.242;2023-08-21T14:55:06;2.13;;;2.00;;
8260;SDS011;64115;50.170;8.242;2023-08-21T14:57:33;2.13;;;2.03;;
8260;SDS011;64115;50.170;8.242;2023-08-21T15:00:00;1.70;;;1.60;;
8260;SDS011;64115;50.170;8.242;2023-08-21T15:02:30;1.90;;;1.70;;